Time;durP1;ratioP1;P1;durP2;ratioP2;P2;SDS_P1;SDS_P2;PMS_P1;PMS_P2;Temp;Humidity;BMP_temperature;BMP_pressure;BME280_temperature;BME280_humidity;BME280_pressure;Samples;Min_cycle;Max_cycle;Signal;HPM_P1;HPM_P2
2023/08/23 00:02:15;;;;;;;7.83;5.10;;;22.60;99.90;;;;;;5087151;28;20222;-68
2023/08/23 00:04:41;;;;;;;9.63;4.87;;;22.50;99.90;;;;;;5088681;28;20240;-67
2023/08/23 00:07:06;;;;;;;5.27;4.77;;;22.50;99.90;;;;;;5088897;28;20194;-67
2023/08/23 00:09:32;;;;;;;8.27;5.00;;;22.50;99.90;;;;;;5088414;28;20182;-67
2023/08/23 00:11:58;;;;;;;8.23;5.27;;;22.40;99.90;;;;;;5070424;28;20190;-67
2023/08/23 00:14:23;;;;;;;5.70;4.80;;;22.20;99.90;;;;;;5088186;28;20202;-67
2023/08/23 00:16:49;;;;;;;5.73;5.20;;;22.00;99.90;;;;;;5088517;28;20235;-66
2023/08/23 00:19:15;;;;;;;8.80;4.83;;;22.00;99.90;;;;;;5088592;28;20194;-66
2023/08/23 00:21:40;;;;;;;6.67;5.20;;;21.90;99.90;;;;;;5088525;28;20210;-68
2023/08/23 00:24:06;;;;;;;9.70;5.20;;;21.80;99.90;;;;;;5088411;28;20290;-68
2023/08/23 00:26:31;;;;;;;5.30;4.77;;;21.80;99.90;;;;;;5087271;28;20180;-67
2023/08/23 00:28:57;;;;;;;5.50;4.30;;;21.90;99.90;;;;;;5086875;28;20858;-68
2023/08/23 00:31:22;;;;;;;5.67;4.97;;;21.90;99.90;;;;;;5089378;28;20220;-68
2023/08/23 00:33:48;;;;;;;9.93;4.90;;;21.80;99.90;;;;;;5092656;28;20211;-67
2023/08/23 00:36:14;;;;;;;6.50;5.00;;;21.60;99.90;;;;;;5092602;28;20305;-68
2023/08/23 00:38:39;;;;;;;4.63;4.23;;;21.50;99.90;;;;;;5092522;28;20197;-68
2023/08/23 00:41:05;;;;;;;7.00;4.17;;;21.50;99.90;;;;;;5092545;28;20210;-68
2023/08/23 00:43:30;;;;;;;7.30;4.97;;;21.50;99.90;;;;;;5092376;28;20180;-67
2023/08/23 00:45:56;;;;;;;11.73;4.47;;;21.60;99.90;;;;;;5092324;28;20189;-68
2023/08/23 00:48:22;;;;;;;7.33;4.70;;;21.60;99.90;;;;;;5092348;28;20209;-68
2023/08/23 00:50:48;;;;;;;8.43;4.40;;;21.60;99.90;;;;;;5092176;28;21074;-68
2023/08/23 00:53:14;;;;;;;9.00;4.53;;;21.70;99.90;;;;;;5092106;28;20981;-68
2023/08/23 00:55:40;;;;;;;5.93;4.27;;;21.60;99.90;;;;;;5092012;28;20218;-68
2023/08/23 00:58:06;;;;;;;8.43;4.80;;;21.60;99.90;;;;;;5092515;28;20422;-68
2023/08/23 01:00:33;;;;;;;5.30;4.60;;;21.40;99.90;;;;;;5092488;28;20193;-67
2023/08/23 01:02:59;;;;;;;8.63;4.70;;;21.30;99.90;;;;;;5092272;28;20423;-68
2023/08/23 01:06:05;;;;;;;10.93;4.80;;;21.30;99.90;;;;;;5092050;28;20449;-67
2023/08/23 01:08:41;;;;;;;7.50;4.03;;;21.20;99.90;;;;;;5091943;28;20452;-68
2023/08/23 01:11:27;;;;;;;5.83;4.93;;;21.20;99.90;;;;;;5091909;28;20925;-67
2023/08/23 01:14:03;;;;;;;5.23;3.93;;;21.20;99.90;;;;;;5090386;28;20447;-67
2023/08/23 01:16:31;;;;;;;4.50;4.00;;;21.30;99.90;;;;;;5091778;28;20467;-67
2023/08/23 01:18:58;;;;;;;5.67;4.30;;;21.30;99.90;;;;;;5091798;28;20482;-68
2023/08/23 01:21:32;;;;;;;6.07;3.73;;;21.30;99.90;;;;;;5091854;28;20417;-67
2023/08/23 01:23:58;;;;;;;10.80;4.67;;;21.40;99.90;;;;;;5091792;28;20933;-67
2023/08/23 01:26:23;;;;;;;5.13;4.33;;;21.40;99.90;;;;;;5091669;28;20425;-67
2023/08/23 01:28:51;;;;;;;8.30;4.27;;;21.40;99.90;;;;;;5091820;28;20433;-69
2023/08/23 01:31:20;;;;;;;6.40;4.27;;;21.40;99.90;;;;;;5090691;28;20194;-68
2023/08/23 01:34:04;;;;;;;7.10;5.17;;;21.30;99.90;;;;;;5092171;28;20869;-67
2023/08/23 01:36:31;;;;;;;12.40;4.20;;;21.30;99.90;;;;;;5092026;28;20458;-67
2023/08/23 01:38:58;;;;;;;6.80;4.77;;;21.10;99.90;;;;;;5092147;28;20420;-67
2023/08/23 01:41:24;;;;;;;4.73;4.10;;;21.00;99.90;;;;;;5092173;28;20424;-67
2023/08/23 01:43:52;;;;;;;5.70;4.60;;;21.10;99.90;;;;;;5091659;28;20531;-67
2023/08/23 01:46:17;;;;;;;5.53;4.03;;;21.10;99.90;;;;;;5092444;28;20539;-68
2023/08/23 01:48:43;;;;;;;9.50;5.27;;;21.10;99.90;;;;;;5092437;28;20505;-67
2023/08/23 01:51:09;;;;;;;7.33;4.73;;;21.10;99.90;;;;;;5092590;28;20664;-67
2023/08/23 01:53:34;;;;;;;6.50;4.30;;;21.10;99.90;;;;;;5092413;28;20612;-67
2023/08/23 01:56:00;;;;;;;11.23;4.27;;;21.00;99.90;;;;;;5091877;28;20221;-67
2023/08/23 01:58:26;;;;;;;10.20;4.70;;;20.80;99.90;;;;;;5091755;28;20215;-67
2023/08/23 02:00:52;;;;;;;7.27;4.40;;;20.60;99.90;;;;;;5092070;28;20195;-67
2023/08/23 02:03:18;;;;;;;9.67;4.80;;;20.70;99.90;;;;;;5092110;28;20553;-67
2023/08/23 02:05:44;;;;;;;9.20;4.70;;;20.70;99.90;;;;;;5091947;28;20421;-67
2023/08/23 02:08:10;;;;;;;7.80;4.97;;;20.70;99.90;;;;;;5091754;28;20467;-66
2023/08/23 02:10:36;;;;;;;7.20;4.73;;;20.70;99.90;;;;;;5091726;28;20862;-68
2023/08/23 02:13:05;;;;;;;7.07;4.50;;;20.80;99.90;;;;;;5091716;28;20421;-67
2023/08/23 02:15:31;;;;;;;5.90;4.30;;;20.80;99.90;;;;;;5091524;28;20211;-67
2023/08/23 02:17:56;;;;;;;5.83;4.53;;;20.80;99.90;;;;;;5091487;28;20416;-67
2023/08/23 02:20:22;;;;;;;6.47;4.80;;;20.80;99.90;;;;;;5091323;28;20423;-67
2023/08/23 02:22:47;;;;;;;5.90;4.87;;;20.80;99.90;;;;;;5091333;28;20187;-67
2023/08/23 02:25:13;;;;;;;5.97;4.50;;;20.90;99.90;;;;;;5091267;28;20215;-67
2023/08/23 02:27:39;;;;;;;7.10;4.67;;;20.80;99.90;;;;;;5091099;28;20247;-67
2023/08/23 02:30:05;;;;;;;6.40;4.37;;;20.80;99.90;;;;;;5091283;28;20651;-67
2023/08/23 02:32:30;;;;;;;5.00;4.30;;;20.80;99.90;;;;;;5091232;28;20236;-67
2023/08/23 02:34:56;;;;;;;8.30;4.33;;;20.80;99.90;;;;;;5090963;28;20569;-67
2023/08/23 02:37:22;;;;;;;6.13;4.53;;;20.70;99.90;;;;;;5090935;28;20197;-67
2023/08/23 02:39:47;;;;;;;6.03;4.80;;;20.80;99.90;;;;;;5090582;28;20841;-68
2023/08/23 02:42:13;;;;;;;18.07;5.00;;;20.70;99.90;;;;;;5090592;28;20262;-68
2023/08/23 02:44:38;;;;;;;7.87;4.50;;;20.70;99.90;;;;;;5089033;28;20203;-68
2023/08/23 02:47:04;;;;;;;6.60;4.40;;;20.60;99.90;;;;;;5090285;28;20673;-67
2023/08/23 02:49:30;;;;;;;10.90;5.07;;;20.60;99.90;;;;;;5090431;28;20197;-68
2023/08/23 02:51:55;;;;;;;6.83;4.50;;;20.60;99.90;;;;;;5090252;28;20814;-68
2023/08/23 02:54:21;;;;;;;8.57;5.67;;;20.60;99.90;;;;;;5089789;28;20214;-68
2023/08/23 02:56:46;;;;;;;7.20;5.50;;;20.50;99.90;;;;;;5088989;28;20226;-66
2023/08/23 02:59:13;;;;;;;6.47;4.57;;;20.10;99.90;;;;;;5089994;28;20269;-67
2023/08/23 03:01:38;;;;;;;7.07;4.90;;;19.90;99.90;;;;;;5088369;28;20662;-67
2023/08/23 03:04:04;;;;;;;9.30;5.33;;;19.90;99.90;;;;;;5089837;28;20842;-67
2023/08/23 03:06:29;;;;;;;8.10;5.00;;;19.90;99.90;;;;;;5088403;28;20190;-67
2023/08/23 03:08:55;;;;;;;6.23;4.57;;;19.90;99.90;;;;;;5088506;28;20190;-67
2023/08/23 03:11:20;;;;;;;9.10;5.30;;;20.00;99.90;;;;;;5089629;28;20255;-67
2023/08/23 03:13:46;;;;;;;6.23;4.93;;;20.00;99.90;;;;;;5089729;28;20229;-67
2023/08/23 03:16:11;;;;;;;8.70;5.30;;;20.10;99.90;;;;;;5089513;28;20218;-66
2023/08/23 03:18:37;;;;;;;13.23;5.10;;;20.10;99.90;;;;;;5088170;28;20183;-67
2023/08/23 03:21:03;;;;;;;7.33;5.23;;;20.20;99.90;;;;;;5089634;28;20189;-66
2023/08/23 03:23:28;;;;;;;5.73;4.80;;;20.30;99.90;;;;;;5089359;28;20206;-66
2023/08/23 03:25:54;;;;;;;5.90;4.57;;;20.30;99.90;;;;;;5089360;28;20855;-66
2023/08/23 03:28:19;;;;;;;11.33;5.43;;;20.30;99.90;;;;;;5088097;28;20195;-67
2023/08/23 03:30:45;;;;;;;7.40;5.20;;;20.20;99.90;;;;;;5089853;28;20201;-66
2023/08/23 03:33:11;;;;;;;7.50;4.43;;;20.10;99.90;;;;;;5089753;28;20849;-67
2023/08/23 03:35:36;;;;;;;9.50;5.53;;;20.10;99.90;;;;;;5089570;28;20301;-70
2023/08/23 03:38:02;;;;;;;6.13;5.03;;;20.00;99.90;;;;;;5089650;28;20597;-70
2023/08/23 03:40:27;;;;;;;8.37;5.30;;;20.00;99.90;;;;;;5070918;28;20190;-70
2023/08/23 03:42:53;;;;;;;10.87;5.50;;;20.10;99.90;;;;;;5089218;28;20624;-70
2023/08/23 03:45:19;;;;;;;6.70;4.90;;;20.10;99.90;;;;;;5088946;28;20605;-70
2023/08/23 03:47:44;;;;;;;6.27;5.60;;;20.20;99.90;;;;;;5089029;28;20186;-69
2023/08/23 03:50:12;;;;;;;6.73;5.60;;;20.30;99.90;;;;;;5088872;28;20199;-69
2023/08/23 03:52:37;;;;;;;8.00;4.50;;;20.30;99.90;;;;;;5088917;28;20186;-70
2023/08/23 03:55:03;;;;;;;7.33;5.60;;;20.30;99.90;;;;;;5088580;28;20486;-70
2023/08/23 03:57:29;;;;;;;8.53;5.17;;;20.30;99.90;;;;;;5087308;28;20466;-70
2023/08/23 03:59:55;;;;;;;6.23;5.47;;;20.30;99.90;;;;;;5088809;28;20434;-69
2023/08/23 04:02:21;;;;;;;17.43;5.60;;;20.20;99.90;;;;;;5088960;28;20925;-69
2023/08/23 04:04:46;;;;;;;8.40;5.50;;;20.20;99.90;;;;;;5088957;28;20538;-70
2023/08/23 04:07:14;;;;;;;8.83;5.10;;;20.10;99.90;;;;;;5089064;28;20182;-69
2023/08/23 04:09:40;;;;;;;8.90;5.27;;;19.90;99.90;;;;;;5089159;28;20868;-69
2023/08/23 04:12:06;;;;;;;8.57;5.50;;;19.80;99.90;;;;;;5089097;28;20430;-69
2023/08/23 04:14:32;;;;;;;6.60;5.60;;;19.80;99.90;;;;;;5087492;28;20214;-70
2023/08/23 04:16:57;;;;;;;7.40;5.30;;;19.90;99.90;;;;;;5088169;28;20417;-70
2023/08/23 04:19:23;;;;;;;7.40;5.90;;;20.00;99.90;;;;;;5088258;28;20192;-69
2023/08/23 04:21:48;;;;;;;8.57;5.90;;;20.00;99.90;;;;;;5088309;28;20529;-69
2023/08/23 04:24:15;;;;;;;8.97;5.60;;;20.00;99.90;;;;;;5088183;28;20588;-69
2023/08/23 04:26:41;;;;;;;5.73;4.97;;;20.00;99.90;;;;;;5086801;28;20189;-69
2023/08/23 04:29:06;;;;;;;6.70;5.93;;;20.00;99.90;;;;;;5086774;28;20405;-69
2023/08/23 04:31:32;;;;;;;8.03;5.80;;;20.00;99.90;;;;;;5088160;28;20661;-69
2023/08/23 04:33:58;;;;;;;6.70;5.13;;;20.00;99.90;;;;;;5088351;28;20290;-68
2023/08/23 04:36:23;;;;;;;8.13;5.90;;;20.10;99.90;;;;;;5088396;28;20274;-69
2023/08/23 04:38:49;;;;;;;8.10;5.70;;;20.10;99.90;;;;;;5088016;28;20264;-69
2023/08/23 04:41:15;;;;;;;7.53;5.70;;;19.90;99.90;;;;;;5086463;28;20413;-69
2023/08/23 04:43:40;;;;;;;6.90;5.27;;;20.00;99.90;;;;;;5087095;28;20331;-69
2023/08/23 04:46:08;;;;;;;8.90;6.20;;;20.00;99.90;;;;;;5088408;28;20210;-68
2023/08/23 04:48:34;;;;;;;8.40;6.47;;;19.90;99.90;;;;;;5088437;28;20187;-68
2023/08/23 04:51:03;;;;;;;9.73;4.80;;;19.90;99.90;;;;;;5088250;28;20428;-67
2023/08/23 04:53:29;;;;;;;7.50;6.20;;;20.00;99.90;;;;;;5086477;28;20190;-70
2023/08/23 04:55:58;;;;;;;7.90;6.03;;;20.00;99.90;;;;;;5088094;28;20558;-70
2023/08/23 04:58:27;;;;;;;9.90;6.33;;;19.90;99.90;;;;;;5088365;28;20174;-70
2023/08/23 05:00:54;;;;;;;9.53;5.73;;;19.90;99.90;;;;;;5088152;28;20422;-69
2023/08/23 05:03:20;;;;;;;7.43;5.77;;;19.90;99.90;;;;;;5088121;28;20428;-69
2023/08/23 05:05:46;;;;;;;12.83;5.63;;;19.90;99.90;;;;;;5088244;28;20467;-69
2023/08/23 05:08:12;;;;;;;8.90;5.90;;;20.00;99.90;;;;;;5088296;28;20456;-70
2023/08/23 05:10:38;;;;;;;10.27;5.40;;;20.00;99.90;;;;;;5088112;28;20680;-70
2023/08/23 05:13:04;;;;;;;9.63;6.33;;;20.10;99.90;;;;;;5086792;28;20436;-70
2023/08/23 05:15:30;;;;;;;6.17;5.57;;;20.10;99.90;;;;;;5087935;28;20214;-69
2023/08/23 05:17:55;;;;;;;6.17;5.57;;;20.10;99.90;;;;;;5088198;28;20435;-70
2023/08/23 05:20:21;;;;;;;8.90;6.33;;;20.10;99.90;;;;;;5091451;28;20178;-70
2023/08/23 05:22:47;;;;;;;9.67;6.13;;;20.10;99.90;;;;;;5090127;28;20211;-69
2023/08/23 05:25:12;;;;;;;9.40;6.27;;;20.00;99.90;;;;;;5089880;28;20459;-69
2023/08/23 05:27:38;;;;;;;6.27;5.37;;;20.10;99.90;;;;;;5090245;28;20209;-69
2023/08/23 05:30:04;;;;;;;6.50;5.27;;;20.20;99.90;;;;;;5089888;28;20186;-70
2023/08/23 05:32:30;;;;;;;8.37;5.90;;;20.30;99.90;;;;;;5091028;28;20613;-70
2023/08/23 05:34:55;;;;;;;9.20;5.93;;;20.40;99.90;;;;;;5091075;28;20533;-70
2023/08/23 05:37:21;;;;;;;5.93;5.33;;;20.60;99.90;;;;;;5091346;28;20216;-69
2023/08/23 05:39:49;;;;;;;8.03;6.20;;;20.70;99.90;;;;;;5091274;28;20179;-69
2023/08/23 05:42:15;;;;;;;7.20;5.23;;;20.70;99.90;;;;;;5089865;28;20597;-70
2023/08/23 05:44:40;;;;;;;11.23;5.73;;;20.80;99.90;;;;;;5090820;28;20432;-70
2023/08/23 05:47:06;;;;;;;10.50;5.27;;;21.00;99.90;;;;;;5089570;28;20179;-70
2023/08/23 05:49:32;;;;;;;12.83;6.23;;;21.00;99.90;;;;;;5091043;28;20266;-70
2023/08/23 05:51:57;;;;;;;8.57;5.33;;;21.10;99.90;;;;;;5089520;28;20179;-69
2023/08/23 05:54:24;;;;;;;7.97;4.97;;;21.20;99.90;;;;;;5089075;28;20222;-70
2023/08/23 05:56:49;;;;;;;9.00;5.50;;;21.30;99.90;;;;;;5071841;28;20214;-70
2023/08/23 05:59:15;;;;;;;11.63;6.57;;;21.40;99.90;;;;;;5090027;28;20471;-70
2023/08/23 06:01:41;;;;;;;13.00;5.13;;;21.50;99.90;;;;;;5090558;28;20266;-71
2023/08/23 06:04:07;;;;;;;6.47;4.93;;;21.60;99.90;;;;;;5089842;28;20198;-70
2023/08/23 06:06:33;;;;;;;17.53;5.20;;;21.60;99.90;;;;;;5090025;28;20192;-69
2023/08/23 06:09:00;;;;;;;10.30;5.83;;;21.60;99.90;;;;;;5089963;28;20424;-70
2023/08/23 06:11:26;;;;;;;6.67;5.80;;;21.70;99.90;;;;;;5089892;28;20466;-69
2023/08/23 06:13:51;;;;;;;8.10;5.57;;;21.70;99.90;;;;;;5089915;28;20948;-69
2023/08/23 06:16:17;;;;;;;8.83;5.30;;;21.80;99.90;;;;;;5089567;28;20203;-69
2023/08/23 06:18:42;;;;;;;9.40;5.97;;;21.90;99.90;;;;;;5088276;28;20194;-72
2023/08/23 06:21:08;;;;;;;7.70;5.90;;;22.00;99.90;;;;;;5088640;28;20648;-71
2023/08/23 06:23:34;;;;;;;10.87;7.20;;;22.10;99.90;;;;;;5071382;28;20215;-71
2023/08/23 06:26:02;;;;;;;9.67;6.50;;;22.20;99.90;;;;;;5088559;28;20559;-70
2023/08/23 06:28:28;;;;;;;10.17;7.20;;;22.30;99.90;;;;;;5089673;28;20418;-70
2023/08/23 06:30:55;;;;;;;11.50;6.10;;;22.40;99.90;;;;;;5089631;28;20466;-70
2023/08/23 06:33:21;;;;;;;8.63;5.93;;;22.50;99.90;;;;;;5088104;28;20170;-70
2023/08/23 06:35:46;;;;;;;7.03;5.50;;;22.60;99.90;;;;;;5089378;28;20454;-70
2023/08/23 06:38:15;;;;;;;7.70;5.90;;;22.70;99.90;;;;;;5089345;28;20441;-70
2023/08/23 06:40:42;;;;;;;11.43;6.20;;;22.70;99.90;;;;;;5089424;28;20288;-70
2023/08/23 06:43:08;;;;;;;10.73;6.67;;;22.90;99.90;;;;;;5089356;28;20447;-70
2023/08/23 06:45:33;;;;;;;12.10;6.20;;;23.00;99.90;;;;;;5087897;28;20435;-70
2023/08/23 06:47:59;;;;;;;13.37;6.90;;;23.20;99.90;;;;;;5089115;28;20423;-70
2023/08/23 06:50:25;;;;;;;10.17;5.90;;;23.30;99.90;;;;;;5089318;28;20216;-70
2023/08/23 06:52:50;;;;;;;6.93;6.23;;;23.40;99.90;;;;;;5089110;28;20714;-70
2023/08/23 06:55:16;;;;;;;9.30;6.07;;;23.30;99.90;;;;;;5088750;28;20219;-70
2023/08/23 06:57:42;;;;;;;8.00;6.17;;;23.40;99.90;;;;;;5089099;28;20240;-70
2023/08/23 07:00:08;;;;;;;14.33;6.20;;;23.50;99.90;;;;;;5089133;28;20274;-70
2023/08/23 07:02:34;;;;;;;10.03;6.80;;;23.50;99.90;;;;;;5088817;28;20177;-70
2023/08/23 07:04:59;;;;;;;9.30;6.10;;;23.50;99.90;;;;;;5088944;28;20455;-70
2023/08/23 07:07:25;;;;;;;6.97;6.27;;;23.60;99.90;;;;;;5088754;28;20263;-70
2023/08/23 07:09:51;;;;;;;7.83;5.47;;;23.60;99.90;;;;;;5087377;28;20179;-70
2023/08/23 07:12:17;;;;;;;11.97;6.90;;;23.50;99.90;;;;;;5088782;28;20231;-69
2023/08/23 07:14:42;;;;;;;11.03;6.60;;;23.40;99.90;;;;;;5088565;28;20738;-70
2023/08/23 07:17:08;;;;;;;13.67;7.33;;;23.40;99.90;;;;;;5088630;28;20260;-69
2023/08/23 07:19:34;;;;;;;9.30;6.83;;;23.20;99.90;;;;;;5088982;28;20928;-69
2023/08/23 07:22:01;;;;;;;8.13;6.07;;;23.40;99.90;;;;;;5088836;28;20875;-71
2023/08/23 07:24:26;;;;;;;23.23;6.57;;;23.60;99.90;;;;;;5088601;28;20476;-70
2023/08/23 07:26:54;;;;;;;9.07;6.77;;;23.60;99.90;;;;;;5088688;28;20451;-70
2023/08/23 07:29:19;;;;;;;11.33;5.87;;;23.60;99.90;;;;;;5088875;28;20755;-70
2023/08/23 07:31:45;;;;;;;12.47;5.73;;;23.70;99.90;;;;;;5088626;28;20506;-69
2023/08/23 07:34:11;;;;;;;17.00;6.53;;;23.70;99.90;;;;;;5088572;28;20608;-70
2023/08/23 07:36:36;;;;;;;8.47;5.90;;;23.70;99.90;;;;;;5087138;28;20502;-70
2023/08/23 07:39:03;;;;;;;6.17;5.00;;;23.80;99.90;;;;;;5088377;28;20773;-70
2023/08/23 07:41:29;;;;;;;13.53;6.00;;;23.80;99.90;;;;;;5087567;28;20219;-69
2023/08/23 07:43:55;;;;;;;13.30;6.67;;;24.00;99.90;;;;;;5088240;28;21084;-69
2023/08/23 07:46:20;;;;;;;11.33;5.57;;;24.00;99.90;;;;;;5088101;28;20419;-69
2023/08/23 07:48:46;;;;;;;8.10;5.67;;;24.00;99.90;;;;;;5088433;28;20263;-71
2023/08/23 07:51:11;;;;;;;7.93;4.87;;;24.30;99.90;;;;;;5086970;28;20194;-70
2023/08/23 07:53:37;;;;;;;7.40;6.27;;;24.40;99.90;;;;;;5086860;28;20219;-70
2023/08/23 07:56:03;;;;;;;9.43;5.50;;;24.50;99.90;;;;;;5086639;28;20228;-71
2023/08/23 07:58:29;;;;;;;13.53;5.67;;;24.50;99.90;;;;;;5088303;28;20409;-70
2023/08/23 08:00:54;;;;;;;6.83;5.27;;;24.60;99.90;;;;;;5088317;28;20279;-70
2023/08/23 08:03:20;;;;;;;9.07;5.60;;;24.70;99.90;;;;;;5088055;28;20539;-70
2023/08/23 08:05:46;;;;;;;8.13;5.87;;;24.70;99.90;;;;;;5088075;28;20187;-70
2023/08/23 08:08:12;;;;;;;6.27;5.70;;;24.90;99.90;;;;;;5086588;28;20189;-71
2023/08/23 08:10:37;;;;;;;6.63;5.10;;;25.00;99.90;;;;;;5086650;28;20797;-69
2023/08/23 08:13:04;;;;;;;5.70;5.00;;;25.10;99.90;;;;;;5088239;28;20601;-71
2023/08/23 08:15:31;;;;;;;7.93;5.13;;;25.20;99.90;;;;;;5087964;28;20212;-69
2023/08/23 08:17:57;;;;;;;7.30;5.80;;;25.30;99.90;;;;;;5087981;28;20411;-70
2023/08/23 08:20:26;;;;;;;6.30;5.37;;;25.30;99.90;;;;;;5087901;28;20495;-70
2023/08/23 08:22:52;;;;;;;8.50;5.50;;;25.40;99.90;;;;;;5087795;28;20423;-70
2023/08/23 08:25:17;;;;;;;6.70;5.03;;;25.40;99.90;;;;;;5087751;28;20437;-70
2023/08/23 08:27:43;;;;;;;8.10;5.23;;;25.60;99.90;;;;;;5087709;28;20498;-70
2023/08/23 08:30:09;;;;;;;6.10;5.30;;;25.60;99.90;;;;;;5087890;28;20178;-70
2023/08/23 08:32:35;;;;;;;6.90;5.80;;;25.70;99.90;;;;;;5087870;28;20182;-69
2023/08/23 08:35:00;;;;;;;6.57;5.43;;;25.70;99.90;;;;;;5085853;28;21027;-69
2023/08/23 08:37:26;;;;;;;8.07;5.00;;;25.70;99.90;;;;;;5087677;28;20437;-69
2023/08/23 08:39:52;;;;;;;9.93;5.57;;;25.70;99.90;;;;;;5087773;28;20186;-69
2023/08/23 08:42:18;;;;;;;6.50;5.43;;;25.70;99.90;;;;;;5086296;28;20946;-71
2023/08/23 08:44:46;;;;;;;7.00;5.80;;;25.70;99.90;;;;;;5087559;28;20835;-70
2023/08/23 08:47:12;;;;;;;8.40;5.77;;;25.70;99.90;;;;;;5087493;28;20729;-69
2023/08/23 08:49:38;;;;;;;6.73;4.73;;;25.80;99.90;;;;;;5087526;28;20411;-69
2023/08/23 08:52:05;;;;;;;10.80;5.33;;;25.90;99.90;;;;;;5087651;28;20182;-70
2023/08/23 08:54:33;;;;;;;5.87;5.30;;;26.10;99.90;;;;;;5089583;28;20217;-71
2023/08/23 08:57:00;;;;;;;6.43;5.80;;;26.30;99.90;;;;;;5090203;28;20520;-70
2023/08/23 08:59:25;;;;;;;9.13;6.13;;;26.40;99.90;;;;;;5091675;28;21196;-70
2023/08/23 09:01:54;;;;;;;11.30;5.60;;;26.30;99.90;;;;;;5091422;28;20487;-70
2023/08/23 09:04:20;;;;;;;7.40;5.13;;;26.40;99.90;;;;;;5089979;28;20378;-69
2023/08/23 09:06:46;;;;;;;6.73;5.63;;;26.50;99.90;;;;;;5092176;28;20923;-71
2023/08/23 09:09:12;;;;;;;6.87;5.70;;;26.70;99.90;;;;;;5091843;28;20388;-71
2023/08/23 09:11:39;;;;;;;6.37;5.50;;;26.80;99.90;;;;;;5091591;28;20798;-73
2023/08/23 09:14:21;;;;;;;5.50;5.00;;;26.70;99.90;;;;;;5089797;28;20205;-70
2023/08/23 09:16:47;;;;;;;7.70;5.30;;;26.90;99.90;;;;;;5091079;28;20546;-70
2023/08/23 09:19:13;;;;;;;6.23;5.13;;;27.20;99.90;;;;;;5089424;28;20951;-70
2023/08/23 09:21:48;;;;;;;12.50;5.57;;;27.10;99.90;;;;;;5089577;28;20412;-70
2023/08/23 09:24:15;;;;;;;6.17;5.00;;;27.00;99.90;;;;;;5090845;28;20435;-70
2023/08/23 09:26:40;;;;;;;7.20;5.70;;;27.10;99.90;;;;;;5090993;28;20412;-70
2023/08/23 09:29:06;;;;;;;8.23;5.60;;;27.40;99.90;;;;;;5090934;28;20786;-69
2023/08/23 09:31:32;;;;;;;7.57;5.93;;;27.60;99.90;;;;;;5090817;28;20186;-70
2023/08/23 09:33:58;;;;;;;11.63;5.33;;;27.80;99.90;;;;;;5090661;28;20229;-70
2023/08/23 09:36:28;;;;;;;7.90;5.03;;;27.90;99.90;;;;;;5090301;28;20256;-69
2023/08/23 09:39:00;;;;;;;12.10;5.53;;;27.90;99.90;;;;;;5090317;28;20429;-69
2023/08/23 09:41:26;;;;;;;11.13;5.03;;;27.80;99.90;;;;;;5090257;28;20832;-70
2023/08/23 09:43:56;;;;;;;5.50;4.30;;;28.20;99.90;;;;;;5089999;28;20436;-70
2023/08/23 09:46:25;;;;;;;7.23;4.97;;;28.70;99.90;;;;;;5090432;28;20182;-69
2023/08/23 09:48:53;;;;;;;8.03;5.40;;;28.90;99.90;;;;;;5089993;28;20428;-69
2023/08/23 09:51:22;;;;;;;8.27;5.10;;;29.50;99.90;;;;;;5088281;28;20452;-69
2023/08/23 09:53:53;;;;;;;5.23;4.67;;;29.30;99.90;;;;;;5089462;28;20511;-69
2023/08/23 09:56:20;;;;;;;7.13;4.70;;;29.00;99.90;;;;;;5089616;28;20462;-69
2023/08/23 09:58:46;;;;;;;7.87;5.33;;;29.40;99.90;;;;;;5088249;28;20543;-70
2023/08/23 10:01:12;;;;;;;8.23;5.70;;;30.00;99.90;;;;;;5088065;28;20445;-70
2023/08/23 10:03:39;;;;;;;5.83;4.57;;;29.90;99.90;;;;;;5089582;28;20519;-70
2023/08/23 10:06:06;;;;;;;7.47;4.90;;;29.80;99.90;;;;;;5088148;28;20497;-70
2023/08/23 10:08:34;;;;;;;6.50;4.13;;;29.70;99.90;;;;;;5089847;28;20448;-70
2023/08/23 10:11:00;;;;;;;5.47;4.07;;;29.60;97.20;;;;;;5089808;28;20421;-70
2023/08/23 10:13:25;;;;;;;4.23;3.83;;;29.40;96.70;;;;;;5089552;28;21084;-70
2023/08/23 10:15:53;;;;;;;8.33;4.37;;;29.40;98.90;;;;;;5088005;28;20456;-71
2023/08/23 10:18:19;;;;;;;6.67;4.33;;;29.50;99.30;;;;;;5089553;28;20204;-71
2023/08/23 10:20:45;;;;;;;4.97;4.00;;;29.60;99.20;;;;;;5089343;28;20412;-69
2023/08/23 10:23:16;;;;;;;6.33;4.33;;;29.60;99.70;;;;;;5089518;28;20471;-70
2023/08/23 10:25:43;;;;;;;7.13;4.10;;;29.60;99.50;;;;;;5089317;28;20245;-70
2023/08/23 10:28:16;;;;;;;6.40;5.10;;;29.60;98.40;;;;;;5089564;28;20575;-70
2023/08/23 10:30:43;;;;;;;8.10;5.13;;;29.50;98.70;;;;;;5089471;28;20500;-71
2023/08/23 10:33:10;;;;;;;6.87;4.73;;;29.20;99.90;;;;;;5089685;28;20470;-70
2023/08/23 10:35:37;;;;;;;6.20;4.20;;;29.20;98.70;;;;;;5089074;28;20513;-70
2023/08/23 10:38:05;;;;;;;7.17;4.30;;;29.30;99.40;;;;;;5089453;28;20541;-70
2023/08/23 10:40:31;;;;;;;8.17;4.17;;;29.40;99.10;;;;;;5089395;28;20489;-70
2023/08/23 10:43:00;;;;;;;4.80;4.40;;;29.20;98.70;;;;;;5088055;28;20456;-71
2023/08/23 10:45:26;;;;;;;6.03;4.40;;;29.30;99.80;;;;;;5089246;28;20566;-70
2023/08/23 10:47:52;;;;;;;6.70;4.53;;;29.50;99.30;;;;;;5089107;28;20433;-70
2023/08/23 10:50:19;;;;;;;4.83;4.33;;;29.50;97.70;;;;;;5088947;28;20413;-70
2023/08/23 10:52:48;;;;;;;9.00;4.80;;;29.60;98.70;;;;;;5088905;28;20424;-70
2023/08/23 10:55:14;;;;;;;4.30;3.90;;;29.90;98.80;;;;;;5088354;28;20479;-70
2023/08/23 10:57:39;;;;;;;4.30;3.90;;;30.00;97.90;;;;;;5088809;28;20470;-71
2023/08/23 11:00:05;;;;;;;6.33;4.60;;;30.10;97.70;;;;;;5088902;28;20189;-70
2023/08/23 11:02:32;;;;;;;5.50;4.50;;;30.30;97.20;;;;;;5089155;28;20183;-70
2023/08/23 11:04:58;;;;;;;7.27;4.00;;;30.50;97.70;;;;;;5087179;28;20471;-69
2023/08/23 11:07:25;;;;;;;7.70;4.57;;;30.50;96.80;;;;;;5088737;28;20451;-70
2023/08/23 11:09:52;;;;;;;9.00;4.40;;;30.40;96.40;;;;;;5088358;28;20413;-71
2023/08/23 11:12:18;;;;;;;8.43;4.53;;;30.20;97.00;;;;;;5088533;28;20409;-69
2023/08/23 11:14:43;;;;;;;6.83;4.80;;;30.10;97.40;;;;;;5088365;28;20570;-70
2023/08/23 11:17:11;;;;;;;6.47;4.37;;;29.90;97.80;;;;;;5087629;28;20932;-70
2023/08/23 11:19:38;;;;;;;5.47;4.10;;;30.00;98.10;;;;;;5086401;28;20745;-69
2023/08/23 11:22:06;;;;;;;6.77;4.73;;;30.10;97.80;;;;;;5087816;28;20909;-70
2023/08/23 11:24:32;;;;;;;10.50;4.70;;;30.10;97.70;;;;;;5087935;28;20443;-70
2023/08/23 11:26:57;;;;;;;9.43;5.23;;;30.30;97.60;;;;;;5088476;28;20420;-70
2023/08/23 11:29:23;;;;;;;11.57;4.53;;;30.40;97.10;;;;;;5087452;28;20193;-70
2023/08/23 11:31:53;;;;;;;8.60;4.70;;;30.50;97.00;;;;;;5087552;28;20193;-70
2023/08/23 11:34:20;;;;;;;5.80;5.20;;;30.50;96.50;;;;;;5087873;28;20195;-70
2023/08/23 11:36:45;;;;;;;6.50;5.33;;;30.50;96.20;;;;;;5085894;28;20468;-70
2023/08/23 11:39:13;;;;;;;6.00;5.10;;;30.40;96.20;;;;;;5087319;28;20889;-70
2023/08/23 11:41:40;;;;;;;5.33;4.50;;;30.50;96.30;;;;;;5085791;28;20772;-70
2023/08/23 11:44:09;;;;;;;5.23;4.77;;;30.60;96.30;;;;;;5087163;28;20489;-70
2023/08/23 11:46:38;;;;;;;5.30;4.33;;;30.70;96.10;;;;;;5087589;28;20415;-70
2023/08/23 11:49:06;;;;;;;5.13;4.73;;;30.80;96.20;;;;;;5087974;28;20431;-70
2023/08/23 11:51:46;;;;;;;10.07;5.10;;;30.90;95.50;;;;;;5088210;28;20416;-70
2023/08/23 11:54:13;;;;;;;7.47;4.40;;;30.90;95.10;;;;;;5088016;28;20480;-69
2023/08/23 11:56:40;;;;;;;8.33;4.60;;;31.10;95.00;;;;;;5087947;28;20530;-70
2023/08/23 11:59:06;;;;;;;10.27;5.13;;;31.00;95.90;;;;;;5087705;28;20477;-71
2023/08/23 12:01:34;;;;;;;5.10;4.60;;;31.00;95.20;;;;;;5088171;28;20915;-70
2023/08/23 12:04:00;;;;;;;7.00;5.07;;;31.00;95.90;;;;;;5087692;28;20811;-69
2023/08/23 12:06:26;;;;;;;9.53;5.37;;;31.00;95.50;;;;;;5087418;28;20424;-70
2023/08/23 12:08:53;;;;;;;5.03;4.50;;;31.00;95.50;;;;;;5086010;28;20442;-69
2023/08/23 12:11:18;;;;;;;9.30;4.73;;;31.00;95.20;;;;;;5087616;28;20420;-69
2023/08/23 12:13:44;;;;;;;10.77;5.30;;;31.10;95.10;;;;;;5086899;28;20510;-71
2023/08/23 12:16:10;;;;;;;5.20;4.70;;;31.10;95.10;;;;;;5085438;28;20311;-70
2023/08/23 12:18:36;;;;;;;5.37;4.73;;;31.20;95.10;;;;;;5086888;28;20189;-71
2023/08/23 12:21:02;;;;;;;5.97;5.10;;;31.30;95.20;;;;;;5087035;28;20416;-70
2023/08/23 12:23:27;;;;;;;5.77;4.93;;;31.30;95.20;;;;;;5086700;28;20470;-70
2023/08/23 12:25:53;;;;;;;10.30;4.70;;;31.40;94.70;;;;;;5086853;28;20182;-69
2023/08/23 12:28:19;;;;;;;10.70;5.23;;;31.40;94.50;;;;;;5089172;28;20657;-69
2023/08/23 12:30:45;;;;;;;4.80;4.37;;;31.30;94.30;;;;;;5091775;28;20174;-70
2023/08/23 12:33:10;;;;;;;12.33;4.63;;;31.20;94.80;;;;;;5090245;28;20193;-70
2023/08/23 12:35:36;;;;;;;6.23;4.73;;;31.20;94.30;;;;;;5089693;28;20213;-70
2023/08/23 12:38:02;;;;;;;10.93;4.73;;;31.20;94.40;;;;;;5091078;28;20258;-68
2023/08/23 12:40:27;;;;;;;6.00;4.70;;;31.20;93.90;;;;;;5090720;28;20209;-70
2023/08/23 12:42:53;;;;;;;7.10;4.50;;;31.20;93.70;;;;;;5090695;28;20181;-72